sensor_id;sensor_type;location;lat;lon;timestamp;pressure;altitude;pressure_sealevel;temperature;humidity
5284;BME280;15377;48.540;9.268;2023-04-08T00:00:04;97666.38;;;7.18;100.00
5284;BME280;15377;48.540;9.268;2023-04-08T00:02:31;97666.69;;;7.20;100.00
5284;BME280;15377;48.540;9.268;2023-04-08T00:04:56;97668.22;;;7.21;100.00
5284;BME280;15377;48.540;9.268;2023-04-08T00:07:22;97651.38;;;7.10;100.00
5284;BME280;15377;48.540;9.268;2023-04-08T00:09:47;97647.03;;;7.01;100.00
5284;BME280;15377;48.540;9.268;2023-04-08T00:12:13;97673.03;;;7.17;100.00
5284;BME280;15377;48.540;9.268;2023-04-08T00:14:38;97667.34;;;7.24;100.00
5284;BME280;15377;48.540;9.268;2023-04-08T00:17:05;97664.28;;;7.22;100.00
5284;BME280;15377;48.540;9.268;2023-04-08T00:19:31;97672.94;;;7.21;100.00
5284;BME280;15377;48.540;9.268;2023-04-08T00:21:57;97652.38;;;7.16;100.00
5284;BME280;15377;48.540;9.268;2023-04-08T00:24:23;97668.53;;;7.23;100.00
5284;BME280;15377;48.540;9.268;2023-04-08T00:26:49;97669.75;;;7.22;100.00
5284;BME280;15377;48.540;9.268;2023-04-08T00:29:14;97661.78;;;7.15;100.00
5284;BME280;15377;48.540;9.268;2023-04-08T00:31:40;97654.47;;;7.13;100.00
5284;BME280;15377;48.540;9.268;2023-04-08T00:34:05;97649.22;;;7.06;100.00
5284;BME280;15377;48.540;9.268;2023-04-08T00:36:31;97659.81;;;7.16;100.00
5284;BME280;15377;48.540;9.268;2023-04-08T00:38:56;97665.50;;;7.21;100.00
5284;BME280;15377;48.540;9.268;2023-04-08T00:41:21;97661.47;;;7.13;100.00
5284;BME280;15377;48.540;9.268;2023-04-08T00:43:47;97660.56;;;7.16;100.00
5284;BME280;15377;48.540;9.268;2023-04-08T00:46:12;97661.47;;;7.13;100.00
5284;BME280;15377;48.540;9.268;2023-04-08T00:48:37;97661.47;;;7.13;100.00
5284;BME280;15377;48.540;9.268;2023-04-08T00:51:03;97664.28;;;7.22;100.00
5284;BME280;15377;48.540;9.268;2023-04-08T00:53:29;97667.56;;;7.17;100.00
5284;BME280;15377;48.540;9.268;2023-04-08T00:55:55;97671.59;;;7.25;100.00
5284;BME280;15377;48.540;9.268;2023-04-08T00:58:21;97667.13;;;7.19;100.00
5284;BME280;15377;48.540;9.268;2023-04-08T01:00:54;97671.84;;;7.18;100.00
5284;BME280;15377;48.540;9.268;2023-04-08T01:03:30;97666.69;;;7.20;100.00
5284;BME280;15377;48.540;9.268;2023-04-08T01:06:13;97677.72;;;7.29;100.00
5284;BME280;15377;48.540;9.268;2023-04-08T01:08:40;97668.13;;;7.25;100.00
5284;BME280;15377;48.540;9.268;2023-04-08T01:11:09;97680.47;;;7.29;100.00
5284;BME280;15377;48.540;9.268;2023-04-08T01:13:41;97676.53;;;7.30;100.00
5284;BME280;15377;48.540;9.268;2023-04-08T01:16:10;97682.22;;;7.23;100.00
5284;BME280;15377;48.540;9.268;2023-04-08T01:18:37;97672.97;;;7.08;100.00
5284;BME280;15377;48.540;9.268;2023-04-08T01:21:04;97684.78;;;7.18;100.00
5284;BME280;15377;48.540;9.268;2023-04-08T01:25:56;97675.47;;;7.15;100.00
5284;BME280;15377;48.540;9.268;2023-04-08T01:28:23;97683.88;;;7.21;100.00
5284;BME280;15377;48.540;9.268;2023-04-08T01:30:52;97673.94;;;7.14;100.00
5284;BME280;15377;48.540;9.268;2023-04-08T01:33:20;97683.13;;;7.20;100.00
5284;BME280;15377;48.540;9.268;2023-04-08T01:35:46;97664.63;;;7.12;100.00
5284;BME280;15377;48.540;9.268;2023-04-08T01:38:17;97676.31;;;7.25;100.00
5284;BME280;15377;48.540;9.268;2023-04-08T01:40:43;97675.53;;;7.24;100.00
5284;BME280;15377;48.540;9.268;2023-04-08T01:43:12;97672.94;;;7.21;100.00
5284;BME280;15377;48.540;9.268;2023-04-08T01:45:38;97661.22;;;7.20;100.00
5284;BME280;15377;48.540;9.268;2023-04-08T01:48:04;97666.59;;;7.24;100.00
5284;BME280;15377;48.540;9.268;2023-04-08T01:50:31;97682.00;;;7.30;100.00
5284;BME280;15377;48.540;9.268;2023-04-08T01:52:59;97662.41;;;7.19;100.00
5284;BME280;15377;48.540;9.268;2023-04-08T01:55:25;97677.06;;;7.25;100.00
5284;BME280;15377;48.540;9.268;2023-04-08T01:57:53;97670.97;;;7.21;100.00
5284;BME280;15377;48.540;9.268;2023-04-08T02:00:24;97674.44;;;7.22;100.00
5284;BME280;15377;48.540;9.268;2023-04-08T02:02:51;97674.44;;;7.22;100.00
5284;BME280;15377;48.540;9.268;2023-04-08T02:05:17;97659.03;;;7.15;100.00
5284;BME280;15377;48.540;9.268;2023-04-08T02:07:42;97675.53;;;7.24;100.00
5284;BME280;15377;48.540;9.268;2023-04-08T02:10:10;97672.81;;;7.24;100.00
5284;BME280;15377;48.540;9.268;2023-04-08T02:12:36;97665.16;;;7.19;100.00
5284;BME280;15377;48.540;9.268;2023-04-08T02:15:01;97674.34;;;7.25;100.00
5284;BME280;15377;48.540;9.268;2023-04-08T02:17:49;97675.09;;;7.26;100.00
5284;BME280;15377;48.540;9.268;2023-04-08T02:20:29;97672.81;;;7.24;100.00
5284;BME280;15377;48.540;9.268;2023-04-08T02:23:09;97681.22;;;7.30;100.00
5284;BME280;15377;48.540;9.268;2023-04-08T02:25:42;97666.69;;;7.20;100.00
5284;BME280;15377;48.540;9.268;2023-04-08T02:28:10;97680.47;;;7.29;100.00
5284;BME280;15377;48.540;9.268;2023-04-08T02:30:39;97678.28;;;7.24;100.00
5284;BME280;15377;48.540;9.268;2023-04-08T02:33:07;97688.78;;;7.26;100.00
5284;BME280;15377;48.540;9.268;2023-04-08T02:35:34;97677.38;;;7.27;100.00
5284;BME280;15377;48.540;9.268;2023-04-08T02:38:00;97669.88;;;7.19;100.00
5284;BME280;15377;48.540;9.268;2023-04-08T02:40:27;97669.88;;;7.19;100.00
5284;BME280;15377;48.540;9.268;2023-04-08T02:42:53;97671.72;;;7.22;100.00
5284;BME280;15377;48.540;9.268;2023-04-08T02:45:19;97684.72;;;7.30;100.00
5284;BME280;15377;48.540;9.268;2023-04-08T02:47:45;97687.78;;;7.32;100.00
5284;BME280;15377;48.540;9.268;2023-04-08T02:50:10;97674.78;;;7.24;100.00
5284;BME280;15377;48.540;9.268;2023-04-08T02:52:36;97684.19;;;7.23;100.00
5284;BME280;15377;48.540;9.268;2023-04-08T02:55:01;97686.06;;;7.26;100.00
5284;BME280;15377;48.540;9.268;2023-04-08T02:57:26;97674.56;;;7.18;100.00
5284;BME280;15377;48.540;9.268;2023-04-08T02:59:52;97684.66;;;7.21;100.00
5284;BME280;15377;48.540;9.268;2023-04-08T03:02:17;97685.41;;;7.22;100.00
5284;BME280;15377;48.540;9.268;2023-04-08T03:04:42;97701.38;;;7.23;100.00
5284;BME280;15377;48.540;9.268;2023-04-08T03:07:08;97685.53;;;7.18;100.00
5284;BME280;15377;48.540;9.268;2023-04-08T03:09:33;97692.53;;;7.19;100.00
5284;BME280;15377;48.540;9.268;2023-04-08T03:11:58;97687.44;;;7.09;100.00
5284;BME280;15377;48.540;9.268;2023-04-08T03:14:24;97681.72;;;7.03;100.00
5284;BME280;15377;48.540;9.268;2023-04-08T03:16:49;97691.56;;;7.13;100.00
5284;BME280;15377;48.540;9.268;2023-04-08T03:19:15;97695.06;;;7.14;100.00
5284;BME280;15377;48.540;9.268;2023-04-08T03:21:40;97679.66;;;7.07;100.00
5284;BME280;15377;48.540;9.268;2023-04-08T03:24:06;97692.66;;;7.16;100.00
5284;BME280;15377;48.540;9.268;2023-04-08T03:26:31;97682.06;;;7.06;100.00
5284;BME280;15377;48.540;9.268;2023-04-08T03:28:57;97689.25;;;7.12;100.00
5284;BME280;15377;48.540;9.268;2023-04-08T03:31:22;97700.53;;;7.14;100.00
5284;BME280;15377;48.540;9.268;2023-04-08T03:33:47;97683.81;;;7.00;100.00
5284;BME280;15377;48.540;9.268;2023-04-08T03:36:13;97686.00;;;7.05;100.00
5284;BME280;15377;48.540;9.268;2023-04-08T03:38:38;97697.28;;;7.07;100.00
5284;BME280;15377;48.540;9.268;2023-04-08T03:41:03;97684.38;;;6.95;100.00
5284;BME280;15377;48.540;9.268;2023-04-08T03:43:29;97701.00;;;7.00;100.00
5284;BME280;15377;48.540;9.268;2023-04-08T03:45:55;97685.81;;;6.87;100.00
5284;BME280;15377;48.540;9.268;2023-04-08T03:48:21;97698.28;;;6.88;100.00
5284;BME280;15377;48.540;9.268;2023-04-08T03:50:47;97694.38;;;6.89;100.00
5284;BME280;15377;48.540;9.268;2023-04-08T03:53:12;97692.59;;;6.82;100.00
5284;BME280;15377;48.540;9.268;2023-04-08T03:55:38;97690.31;;;6.81;100.00
5284;BME280;15377;48.540;9.268;2023-04-08T03:58:03;97685.41;;;6.76;100.00
5284;BME280;15377;48.540;9.268;2023-04-08T04:00:29;97666.28;;;6.63;100.00
5284;BME280;15377;48.540;9.268;2023-04-08T04:02:55;97678.84;;;6.61;100.00
5284;BME280;15377;48.540;9.268;2023-04-08T04:05:20;97688.25;;;6.60;100.00
5284;BME280;15377;48.540;9.268;2023-04-08T04:07:46;97693.63;;;6.63;100.00
5284;BME280;15377;48.540;9.268;2023-04-08T04:10:11;97689.25;;;6.66;100.00
5284;BME280;15377;48.540;9.268;2023-04-08T04:12:36;97685.31;;;6.67;100.00
5284;BME280;15377;48.540;9.268;2023-04-08T04:15:02;97685.31;;;6.67;100.00
5284;BME280;15377;48.540;9.268;2023-04-08T04:17:28;97682.78;;;6.60;100.00
5284;BME280;15377;48.540;9.268;2023-04-08T04:19:53;97682.47;;;6.58;100.00
5284;BME280;15377;48.540;9.268;2023-04-08T04:22:18;97692.94;;;6.59;100.00
5284;BME280;15377;48.540;9.268;2023-04-08T04:24:47;97700.59;;;6.64;100.00
5284;BME280;15377;48.540;9.268;2023-04-08T04:27:13;97691.41;;;6.58;100.00
5284;BME280;15377;48.540;9.268;2023-04-08T04:29:39;97685.19;;;6.58;100.00
5284;BME280;15377;48.540;9.268;2023-04-08T04:32:04;97673.16;;;6.43;100.00
5284;BME280;15377;48.540;9.268;2023-04-08T04:34:30;97698.31;;;6.63;100.00
5284;BME280;15377;48.540;9.268;2023-04-08T04:36:56;97690.88;;;6.51;100.00
5284;BME280;15377;48.540;9.268;2023-04-08T04:39:21;97700.06;;;6.57;100.00
5284;BME280;15377;48.540;9.268;2023-04-08T04:41:46;97701.16;;;6.47;100.00
5284;BME280;15377;48.540;9.268;2023-04-08T04:44:13;97697.78;;;6.43;100.00
5284;BME280;15377;48.540;9.268;2023-04-08T04:46:38;97693.50;;;6.42;100.00
5284;BME280;15377;48.540;9.268;2023-04-08T04:49:04;97691.00;;;6.35;100.00
5284;BME280;15377;48.540;9.268;2023-04-08T04:51:30;97698.19;;;6.41;100.00
5284;BME280;15377;48.540;9.268;2023-04-08T04:53:57;97691.94;;;6.41;100.00
5284;BME280;15377;48.540;9.268;2023-04-08T04:56:22;97694.25;;;6.42;100.00
5284;BME280;15377;48.540;9.268;2023-04-08T04:58:48;97707.19;;;6.54;100.00
5284;BME280;15377;48.540;9.268;2023-04-08T05:01:13;97718.88;;;6.55;100.00
5284;BME280;15377;48.540;9.268;2023-04-08T05:03:39;97705.63;;;6.41;100.00
5284;BME280;15377;48.540;9.268;2023-04-08T05:06:04;97703.25;;;6.43;100.00
5284;BME280;15377;48.540;9.268;2023-04-08T05:08:30;97718.22;;;6.51;100.00
5284;BME280;15377;48.540;9.268;2023-04-08T05:10:55;97725.13;;;6.55;100.00
5284;BME280;15377;48.540;9.268;2023-04-08T05:13:20;97720.50;;;6.52;100.00
5284;BME280;15377;48.540;9.268;2023-04-08T05:15:46;97716.34;;;6.48;100.00
5284;BME280;15377;48.540;9.268;2023-04-08T05:18:12;97716.25;;;6.51;100.00
5284;BME280;15377;48.540;9.268;2023-04-08T05:20:37;97713.63;;;6.48;100.00
5284;BME280;15377;48.540;9.268;2023-04-08T05:23:03;97727.28;;;6.60;100.00
5284;BME280;15377;48.540;9.268;2023-04-08T05:25:29;97719.31;;;6.66;100.00
5284;BME280;15377;48.540;9.268;2023-04-08T05:27:54;97724.34;;;6.67;100.00
5284;BME280;15377;48.540;9.268;2023-04-08T05:30:20;97726.31;;;6.67;100.00
5284;BME280;15377;48.540;9.268;2023-04-08T05:32:45;97736.16;;;6.77;100.00
5284;BME280;15377;48.540;9.268;2023-04-08T05:35:11;97727.31;;;6.73;100.00
5284;BME280;15377;48.540;9.268;2023-04-08T05:37:36;97744.03;;;6.75;100.00
5284;BME280;15377;48.540;9.268;2023-04-08T05:40:01;97735.25;;;6.80;100.00
5284;BME280;15377;48.540;9.268;2023-04-08T05:42:27;97726.75;;;6.78;100.00
5284;BME280;15377;48.540;9.268;2023-04-08T05:44:53;97728.25;;;6.79;100.00
5284;BME280;15377;48.540;9.268;2023-04-08T05:47:21;97748.50;;;6.94;100.00
5284;BME280;15377;48.540;9.268;2023-04-08T05:49:46;97724.78;;;6.91;100.00
5284;BME280;15377;48.540;9.268;2023-04-08T05:52:12;97746.09;;;7.08;100.00
5284;BME280;15377;48.540;9.268;2023-04-08T05:54:37;97738.41;;;7.15;100.00
5284;BME280;15377;48.540;9.268;2023-04-08T05:57:02;97749.88;;;7.23;100.00
5284;BME280;15377;48.540;9.268;2023-04-08T05:59:28;97745.38;;;7.29;100.00
5284;BME280;15377;48.540;9.268;2023-04-08T06:01:53;97752.03;;;7.40;100.00
5284;BME280;15377;48.540;9.268;2023-04-08T06:04:19;97752.22;;;7.46;100.00
5284;BME280;15377;48.540;9.268;2023-04-08T06:06:44;97761.50;;;7.61;100.00
5284;BME280;15377;48.540;9.268;2023-04-08T06:09:10;97738.50;;;7.58;100.00
5284;BME280;15377;48.540;9.268;2023-04-08T06:11:35;97751.84;;;7.69;100.00
5284;BME280;15377;48.540;9.268;2023-04-08T06:14:00;97766.38;;;7.78;100.00
5284;BME280;15377;48.540;9.268;2023-04-08T06:16:26;97765.47;;;7.81;100.00
5284;BME280;15377;48.540;9.268;2023-04-08T06:18:51;97760.00;;;7.81;100.00
5284;BME280;15377;48.540;9.268;2023-04-08T06:21:17;97758.59;;;7.77;100.00
5284;BME280;15377;48.540;9.268;2023-04-08T06:23:42;97780.94;;;7.88;100.00
5284;BME280;15377;48.540;9.268;2023-04-08T06:26:08;97765.16;;;7.79;100.00
5284;BME280;15377;48.540;9.268;2023-04-08T06:28:33;97752.28;;;7.67;100.00
5284;BME280;15377;48.540;9.268;2023-04-08T06:30:59;97774.34;;;7.85;100.00
5284;BME280;15377;48.540;9.268;2023-04-08T06:33:24;97771.63;;;7.85;100.00
5284;BME280;15377;48.540;9.268;2023-04-08T06:35:50;97771.63;;;7.85;100.00
5284;BME280;15377;48.540;9.268;2023-04-08T06:38:15;97784.59;;;7.94;100.00
5284;BME280;15377;48.540;9.268;2023-04-08T06:40:41;97782.84;;;8.00;100.00
5284;BME280;15377;48.540;9.268;2023-04-08T06:43:06;97771.44;;;8.01;100.00
5284;BME280;15377;48.540;9.268;2023-04-08T06:45:32;97789.47;;;8.11;100.00
5284;BME280;15377;48.540;9.268;2023-04-08T06:47:58;97778.63;;;8.08;100.00
5284;BME280;15377;48.540;9.268;2023-04-08T06:50:23;97765.97;;;8.01;100.00
5284;BME280;15377;48.540;9.268;2023-04-08T06:52:51;97776.59;;;7.99;100.00
5284;BME280;15377;48.540;9.268;2023-04-08T06:55:16;97798.00;;;8.13;100.00
5284;BME280;15377;48.540;9.268;2023-04-08T06:57:42;97801.84;;;8.16;100.00
5284;BME280;15377;48.540;9.268;2023-04-08T07:00:08;97798.00;;;8.13;100.00
5284;BME280;15377;48.540;9.268;2023-04-08T07:02:33;97802.31;;;8.14;100.00
5284;BME280;15377;48.540;9.268;2023-04-08T07:04:59;97808.09;;;8.16;100.00
5284;BME280;15377;48.540;9.268;2023-04-08T07:07:24;97798.78;;;8.14;100.00
5284;BME280;15377;48.540;9.268;2023-04-08T07:09:50;97796.81;;;8.14;100.00
5284;BME280;15377;48.540;9.268;2023-04-08T07:12:15;97791.66;;;8.16;100.00
5284;BME280;15377;48.540;9.268;2023-04-08T07:14:41;97810.69;;;8.32;100.00
5284;BME280;15377;48.540;9.268;2023-04-08T07:17:06;97811.94;;;8.40;100.00
5284;BME280;15377;48.540;9.268;2023-04-08T07:19:32;97812.81;;;8.37;100.00
5284;BME280;15377;48.540;9.268;2023-04-08T07:21:57;97819.47;;;8.49;100.00
5284;BME280;15377;48.540;9.268;2023-04-08T07:24:22;97810.75;;;8.41;100.00
5284;BME280;15377;48.540;9.268;2023-04-08T07:26:48;97828.41;;;8.40;100.00
5284;BME280;15377;48.540;9.268;2023-04-08T07:29:13;97836.03;;;8.45;100.00
5284;BME280;15377;48.540;9.268;2023-04-08T07:31:44;97833.00;;;8.43;100.00
5284;BME280;15377;48.540;9.268;2023-04-08T07:34:10;97821.72;;;8.41;100.00
5284;BME280;15377;48.540;9.268;2023-04-08T07:36:36;97832.09;;;8.46;100.00
5284;BME280;15377;48.540;9.268;2023-04-08T07:39:02;97844.91;;;8.49;100.00
5284;BME280;15377;48.540;9.268;2023-04-08T07:41:28;97846.88;;;8.49;100.00
5284;BME280;15377;48.540;9.268;2023-04-08T07:43:53;97849.84;;;8.54;100.00
5284;BME280;15377;48.540;9.268;2023-04-08T07:46:18;97835.16;;;8.48;100.00
5284;BME280;15377;48.540;9.268;2023-04-08T07:48:45;97848.94;;;8.57;100.00
5284;BME280;15377;48.540;9.268;2023-04-08T07:51:10;97842.22;;;8.58;100.00
5284;BME280;15377;48.540;9.268;2023-04-08T07:53:36;97860.75;;;8.67;100.00
5284;BME280;15377;48.540;9.268;2023-04-08T07:56:02;97845.63;;;8.62;100.00
5284;BME280;15377;48.540;9.268;2023-04-08T07:58:28;97853.66;;;8.78;100.00
5284;BME280;15377;48.540;9.268;2023-04-08T08:00:54;97836.72;;;8.80;100.00
5284;BME280;15377;48.540;9.268;2023-04-08T08:03:19;97832.44;;;8.79;100.00
5284;BME280;15377;48.540;9.268;2023-04-08T08:05:44;97850.13;;;9.08;100.00
5284;BME280;15377;48.540;9.268;2023-04-08T08:08:10;97845.31;;;9.21;100.00
5284;BME280;15377;48.540;9.268;2023-04-08T08:10:39;97854.53;;;9.36;100.00
5284;BME280;15377;48.540;9.268;2023-04-08T08:13:05;97854.44;;;9.58;100.00
5284;BME280;15377;48.540;9.268;2023-04-08T08:15:31;97867.16;;;9.73;100.00
5284;BME280;15377;48.540;9.268;2023-04-08T08:17:56;97862.75;;;9.85;100.00
5284;BME280;15377;48.540;9.268;2023-04-08T08:20:22;97855.91;;;9.98;100.00
5284;BME280;15377;48.540;9.268;2023-04-08T08:22:47;97856.38;;;10.06;100.00
5284;BME280;15377;48.540;9.268;2023-04-08T08:25:13;97866.03;;;10.19;100.00
5284;BME280;15377;48.540;9.268;2023-04-08T08:27:38;97874.72;;;10.18;100.00
5284;BME280;15377;48.540;9.268;2023-04-08T08:30:06;97867.81;;;9.95;100.00
5284;BME280;15377;48.540;9.268;2023-04-08T08:32:32;97883.13;;;10.14;100.00
5284;BME280;15377;48.540;9.268;2023-04-08T08:34:59;97879.66;;;9.65;100.00
5284;BME280;15377;48.540;9.268;2023-04-08T08:37:24;97878.16;;;9.73;100.00
5284;BME280;15377;48.540;9.268;2023-04-08T08:39:50;97879.09;;;9.88;100.00
5284;BME280;15377;48.540;9.268;2023-04-08T08:42:23;97887.97;;;10.01;100.00
5284;BME280;15377;48.540;9.268;2023-04-08T08:44:49;97869.00;;;9.85;100.00
5284;BME280;15377;48.540;9.268;2023-04-08T08:47:15;97855.38;;;9.73;100.00
5284;BME280;15377;48.540;9.268;2023-04-08T08:49:41;97891.63;;;9.98;100.00
5284;BME280;15377;48.540;9.268;2023-04-08T08:52:06;97886.41;;;9.82;100.00
5284;BME280;15377;48.540;9.268;2023-04-08T08:54:32;97896.19;;;9.83;100.00
5284;BME280;15377;48.540;9.268;2023-04-08T08:56:57;97888.53;;;9.87;100.00
5284;BME280;15377;48.540;9.268;2023-04-08T08:59:23;97891.28;;;9.87;100.00
5284;BME280;15377;48.540;9.268;2023-04-08T09:01:48;97904.34;;;10.05;100.00
5284;BME280;15377;48.540;9.268;2023-04-08T09:04:18;97894.72;;;10.09;100.00
5284;BME280;15377;48.540;9.268;2023-04-08T09:06:49;97900.13;;;10.31;100.00
5284;BME280;15377;48.540;9.268;2023-04-08T09:09:15;97906.69;;;10.69;100.00
5284;BME280;15377;48.540;9.268;2023-04-08T09:11:43;97896.59;;;10.75;100.00
5284;BME280;15377;48.540;9.268;2023-04-08T09:16:43;97919.53;;;10.63;100.00
5284;BME280;15377;48.540;9.268;2023-04-08T09:19:10;97919.53;;;10.54;100.00
5284;BME280;15377;48.540;9.268;2023-04-08T09:21:36;97921.66;;;10.77;100.00
5284;BME280;15377;48.540;9.268;2023-04-08T09:24:02;97912.91;;;10.96;100.00
5284;BME280;15377;48.540;9.268;2023-04-08T09:26:27;97905.44;;;11.38;100.00
5284;BME280;15377;48.540;9.268;2023-04-08T09:29:01;97904.19;;;11.57;100.00
5284;BME280;15377;48.540;9.268;2023-04-08T09:31:29;97914.06;;;11.73;100.00
5284;BME280;15377;48.540;9.268;2023-04-08T09:33:57;97920.16;;;12.09;100.00
5284;BME280;15377;48.540;9.268;2023-04-08T09:36:23;97915.28;;;12.28;100.00
5284;BME280;15377;48.540;9.268;2023-04-08T09:38:48;97902.66;;;12.74;100.00
5284;BME280;15377;48.540;9.268;2023-04-08T09:41:16;97908.38;;;13.72;100.00
5284;BME280;15377;48.540;9.268;2023-04-08T09:43:45;97898.81;;;13.38;100.00
5284;BME280;15377;48.540;9.268;2023-04-08T09:46:14;97907.25;;;13.49;100.00
5284;BME280;15377;48.540;9.268;2023-04-08T09:48:45;97924.97;;;13.72;100.00
5284;BME280;15377;48.540;9.268;2023-04-08T09:51:15;97928.44;;;13.09;100.00
5284;BME280;15377;48.540;9.268;2023-04-08T09:53:46;97917.63;;;12.82;100.00
5284;BME280;15377;48.540;9.268;2023-04-08T09:56:13;97913.59;;;13.06;100.00
5284;BME280;15377;48.540;9.268;2023-04-08T09:58:48;97916.78;;;13.63;100.00
5284;BME280;15377;48.540;9.268;2023-04-08T10:01:21;97920.00;;;14.45;100.00
5284;BME280;15377;48.540;9.268;2023-04-08T10:03:53;97920.69;;;14.05;100.00
5284;BME280;15377;48.540;9.268;2023-04-08T10:06:21;97925.25;;;13.59;100.00
5284;BME280;15377;48.540;9.268;2023-04-08T10:08:55;97924.88;;;13.81;100.00
5284;BME280;15377;48.540;9.268;2023-04-08T10:11:20;97923.69;;;14.81;100.00
5284;BME280;15377;48.540;9.268;2023-04-08T10:13:46;97916.75;;;16.10;100.00
5284;BME280;15377;48.540;9.268;2023-04-08T10:16:22;97924.97;;;16.88;100.00
5284;BME280;15377;48.540;9.268;2023-04-08T10:18:50;97915.44;;;17.22;94.53
5284;BME280;15377;48.540;9.268;2023-04-08T10:21:41;97919.00;;;17.28;87.90
5284;BME280;15377;48.540;9.268;2023-04-08T10:24:14;97919.75;;;18.00;88.58
5284;BME280;15377;48.540;9.268;2023-04-08T10:26:41;97916.25;;;17.83;86.00
5284;BME280;15377;48.540;9.268;2023-04-08T10:31:49;97900.56;;;16.50;72.39
5284;BME280;15377;48.540;9.268;2023-04-08T10:34:21;97904.56;;;17.24;68.26
5284;BME280;15377;48.540;9.268;2023-04-08T10:36:48;97904.44;;;18.56;69.94
5284;BME280;15377;48.540;9.268;2023-04-08T10:39:15;97906.16;;;18.70;66.37
5284;BME280;15377;48.540;9.268;2023-04-08T10:41:44;97913.44;;;17.50;65.77
5284;BME280;15377;48.540;9.268;2023-04-08T10:44:16;97912.84;;;16.91;73.88
5284;BME280;15377;48.540;9.268;2023-04-08T10:46:42;97910.09;;;15.96;78.17
5284;BME280;15377;48.540;9.268;2023-04-08T10:49:08;97917.69;;;15.65;80.82
5284;BME280;15377;48.540;9.268;2023-04-08T10:51:33;97905.09;;;15.07;86.15
5284;BME280;15377;48.540;9.268;2023-04-08T10:54:11;97905.50;;;15.00;85.88
5284;BME280;15377;48.540;9.268;2023-04-08T10:56:48;97903.44;;;14.50;89.05
5284;BME280;15377;48.540;9.268;2023-04-08T10:59:15;97900.66;;;13.96;95.40
5284;BME280;15377;48.540;9.268;2023-04-08T11:01:44;97916.31;;;13.64;93.32
5284;BME280;15377;48.540;9.268;2023-04-08T11:04:11;97910.16;;;13.26;98.91
5284;BME280;15377;48.540;9.268;2023-04-08T11:06:37;97903.59;;;12.71;100.00
5284;BME280;15377;48.540;9.268;2023-04-08T11:09:03;97909.78;;;12.66;100.00
5284;BME280;15377;48.540;9.268;2023-04-08T11:11:29;97914.50;;;12.51;100.00
5284;BME280;15377;48.540;9.268;2023-04-08T11:13:55;97907.88;;;12.34;100.00
5284;BME280;15377;48.540;9.268;2023-04-08T11:16:21;97900.50;;;11.93;100.00
5284;BME280;15377;48.540;9.268;2023-04-08T11:18:47;97907.59;;;11.76;100.00
5284;BME280;15377;48.540;9.268;2023-04-08T11:21:12;97899.72;;;11.60;100.00
5284;BME280;15377;48.540;9.268;2023-04-08T11:23:37;97909.16;;;11.77;100.00
5284;BME280;15377;48.540;9.268;2023-04-08T11:26:03;97903.44;;;11.48;100.00
5284;BME280;15377;48.540;9.268;2023-04-08T11:28:29;97908.38;;;11.35;100.00
5284;BME280;15377;48.540;9.268;2023-04-08T11:30:55;97912.09;;;11.23;100.00
5284;BME280;15377;48.540;9.268;2023-04-08T11:33:24;97904.41;;;11.27;100.00
5284;BME280;15377;48.540;9.268;2023-04-08T11:35:50;97915.13;;;11.34;100.00
5284;BME280;15377;48.540;9.268;2023-04-08T11:38:16;97920.91;;;11.36;100.00
5284;BME280;15377;48.540;9.268;2023-04-08T11:40:54;97912.09;;;11.23;100.00
5284;BME280;15377;48.540;9.268;2023-04-08T11:43:20;97913.63;;;11.24;100.00
5284;BME280;15377;48.540;9.268;2023-04-08T11:45:46;97905.03;;;11.31;100.00
5284;BME280;15377;48.540;9.268;2023-04-08T11:48:13;97910.13;;;11.56;100.00
5284;BME280;15377;48.540;9.268;2023-04-08T11:50:39;97908.63;;;11.55;100.00
5284;BME280;15377;48.540;9.268;2023-04-08T11:53:25;97911.97;;;11.59;100.00
5284;BME280;15377;48.540;9.268;2023-04-08T11:55:51;97902.19;;;11.58;100.00
5284;BME280;15377;48.540;9.268;2023-04-08T11:58:16;97912.25;;;11.70;100.00
5284;BME280;15377;48.540;9.268;2023-04-08T12:00:42;97908.16;;;11.65;100.00
5284;BME280;15377;48.540;9.268;2023-04-08T12:03:08;97907.03;;;11.72;100.00
5284;BME280;15377;48.540;9.268;2023-04-08T12:05:34;97912.38;;;11.75;100.00
5284;BME280;15377;48.540;9.268;2023-04-08T12:07:59;97919.91;;;11.66;100.00
5284;BME280;15377;48.540;9.268;2023-04-08T12:10:25;97910.38;;;11.76;100.00
5284;BME280;15377;48.540;9.268;2023-04-08T12:12:50;97920.31;;;12.06;100.00
5284;BME280;15377;48.540;9.268;2023-04-08T12:15:16;97915.91;;;12.23;100.00
5284;BME280;15377;48.540;9.268;2023-04-08T12:17:41;97904.13;;;11.99;100.00
5284;BME280;15377;48.540;9.268;2023-04-08T12:20:08;97915.16;;;11.99;100.00
5284;BME280;15377;48.540;9.268;2023-04-08T12:22:34;97915.75;;;12.03;100.00
5284;BME280;15377;48.540;9.268;2023-04-08T12:24:59;97906.06;;;12.07;100.00
5284;BME280;15377;48.540;9.268;2023-04-08T12:27:27;97917.81;;;12.17;100.00
5284;BME280;15377;48.540;9.268;2023-04-08T12:29:52;97922.44;;;12.11;98.92
5284;BME280;15377;48.540;9.268;2023-04-08T12:32:17;97919.41;;;12.09;98.96
5284;BME280;15377;48.540;9.268;2023-04-08T12:34:43;97921.03;;;11.92;96.84
5284;BME280;15377;48.540;9.268;2023-04-08T12:37:08;97922.38;;;11.96;100.00
5284;BME280;15377;48.540;9.268;2023-04-08T12:39:34;97924.66;;;11.98;94.84
5284;BME280;15377;48.540;9.268;2023-04-08T12:42:00;97919.16;;;11.98;96.25
5284;BME280;15377;48.540;9.268;2023-04-08T12:44:25;97906.22;;;11.80;94.25
5284;BME280;15377;48.540;9.268;2023-04-08T12:46:50;97901.56;;;11.63;94.21
5284;BME280;15377;48.540;9.268;2023-04-08T12:49:16;97917.97;;;11.90;96.68
5284;BME280;15377;48.540;9.268;2023-04-08T12:51:41;97906.63;;;12.11;97.94
5284;BME280;15377;48.540;9.268;2023-04-08T12:54:07;97921.94;;;12.21;93.61
5284;BME280;15377;48.540;9.268;2023-04-08T12:56:33;97912.44;;;12.37;91.50
5284;BME280;15377;48.540;9.268;2023-04-08T12:58:59;97910.19;;;12.35;88.34
5284;BME280;15377;48.540;9.268;2023-04-08T13:01:25;97915.44;;;12.24;92.75
5284;BME280;15377;48.540;9.268;2023-04-08T13:03:50;97917.22;;;12.36;92.23
5284;BME280;15377;48.540;9.268;2023-04-08T13:06:15;97915.13;;;12.46;92.58
5284;BME280;15377;48.540;9.268;2023-04-08T13:08:41;97912.81;;;12.30;89.80
5284;BME280;15377;48.540;9.268;2023-04-08T13:11:07;97911.75;;;12.04;90.95